Terminal Aerodrome Forecast
Issued by NWS King Salmon, AK

Home | Current Version | Previous Version | Text Only | Print | Product List | Glossary On
Versions: 1 2 3 4 5 6 7 8 9 10 11 12 13 14
000
FTAK31 PANC 290532
TAFAKN
TAF
PAKN 290532Z 2906/3006 07010KT P6SM VCSH SCT050 BKN070
     FM291100 12008KT P6SM VCSH BKN050 BKN070
     FM291600 14015G22KT P6SM -SHRA BKN040 BKN100
     FM300300 11014KT P6SM -SHRA BKN050 BKN100=

USA.gov is the U.S. government's official web portal to all federal, state and local government web resources and services.